sensor_id;sensor_type;location;lat;lon;timestamp;P1;durP1;ratioP1;P2;durP2;ratioP2
69358;SDS011;56520;49.066;8.660;2022-11-30T00:01:13;9.27;;;3.80;;
69358;SDS011;56520;49.066;8.660;2022-11-30T00:03:46;9.43;;;3.88;;
69358;SDS011;56520;49.066;8.660;2022-11-30T00:06:12;9.73;;;4.05;;
69358;SDS011;56520;49.066;8.660;2022-11-30T00:08:39;9.07;;;3.88;;
69358;SDS011;56520;49.066;8.660;2022-11-30T00:11:12;11.13;;;4.80;;
69358;SDS011;56520;49.066;8.660;2022-11-30T00:13:42;10.38;;;4.47;;
69358;SDS011;56520;49.066;8.660;2022-11-30T00:16:08;10.35;;;4.38;;
69358;SDS011;56520;49.066;8.660;2022-11-30T00:18:36;10.15;;;3.88;;
69358;SDS011;56520;49.066;8.660;2022-11-30T00:21:03;8.80;;;3.78;;
69358;SDS011;56520;49.066;8.660;2022-11-30T00:23:36;9.05;;;3.35;;
69358;SDS011;56520;49.066;8.660;2022-11-30T00:26:07;9.43;;;3.65;;
69358;SDS011;56520;49.066;8.660;2022-11-30T00:28:34;10.50;;;4.40;;
69358;SDS011;56520;49.066;8.660;2022-11-30T00:31:01;12.32;;;4.93;;
69358;SDS011;56520;49.066;8.660;2022-11-30T00:33:30;9.88;;;4.55;;
69358;SDS011;56520;49.066;8.660;2022-11-30T00:35:58;9.88;;;3.88;;
69358;SDS011;56520;49.066;8.660;2022-11-30T00:38:25;11.02;;;4.85;;
69358;SDS011;56520;49.066;8.660;2022-11-30T00:40:51;8.70;;;3.63;;
69358;SDS011;56520;49.066;8.660;2022-11-30T00:43:16;10.38;;;4.40;;
69358;SDS011;56520;49.066;8.660;2022-11-30T00:45:42;9.20;;;3.95;;
69358;SDS011;56520;49.066;8.660;2022-11-30T00:48:08;8.38;;;3.58;;
69358;SDS011;56520;49.066;8.660;2022-11-30T00:50:36;9.68;;;3.78;;
69358;SDS011;56520;49.066;8.660;2022-11-30T00:53:02;9.43;;;4.10;;
69358;SDS011;56520;49.066;8.660;2022-11-30T00:55:27;8.50;;;3.70;;
69358;SDS011;56520;49.066;8.660;2022-11-30T00:57:53;10.98;;;3.90;;
69358;SDS011;56520;49.066;8.660;2022-11-30T01:00:21;11.80;;;4.25;;
69358;SDS011;56520;49.066;8.660;2022-11-30T01:02:47;8.82;;;3.67;;
69358;SDS011;56520;49.066;8.660;2022-11-30T01:05:12;9.95;;;3.80;;
69358;SDS011;56520;49.066;8.660;2022-11-30T01:07:38;10.00;;;3.58;;
69358;SDS011;56520;49.066;8.660;2022-11-30T01:10:03;8.70;;;3.58;;
69358;SDS011;56520;49.066;8.660;2022-11-30T01:12:29;8.98;;;3.90;;
69358;SDS011;56520;49.066;8.660;2022-11-30T01:14:55;9.27;;;3.63;;
69358;SDS011;56520;49.066;8.660;2022-11-30T01:17:20;8.40;;;3.58;;
69358;SDS011;56520;49.066;8.660;2022-11-30T01:19:46;8.50;;;3.65;;
69358;SDS011;56520;49.066;8.660;2022-11-30T01:22:17;8.35;;;3.33;;
69358;SDS011;56520;49.066;8.660;2022-11-30T01:24:43;9.95;;;3.30;;
69358;SDS011;56520;49.066;8.660;2022-11-30T01:27:08;10.15;;;3.35;;
69358;SDS011;56520;49.066;8.660;2022-11-30T01:29:33;9.85;;;3.97;;
69358;SDS011;56520;49.066;8.660;2022-11-30T01:31:59;11.85;;;4.72;;
69358;SDS011;56520;49.066;8.660;2022-11-30T01:34:24;11.75;;;4.47;;
69358;SDS011;56520;49.066;8.660;2022-11-30T01:36:50;12.15;;;4.15;;
69358;SDS011;56520;49.066;8.660;2022-11-30T01:39:15;10.80;;;4.50;;
69358;SDS011;56520;49.066;8.660;2022-11-30T01:41:59;10.40;;;4.80;;
69358;SDS011;56520;49.066;8.660;2022-11-30T01:46:57;11.57;;;4.43;;
69358;SDS011;56520;49.066;8.660;2022-11-30T01:49:34;9.57;;;4.28;;
69358;SDS011;56520;49.066;8.660;2022-11-30T01:52:06;10.85;;;4.43;;
69358;SDS011;56520;49.066;8.660;2022-11-30T01:54:43;9.90;;;3.67;;
69358;SDS011;56520;49.066;8.660;2022-11-30T01:57:15;8.02;;;3.17;;
69358;SDS011;56520;49.066;8.660;2022-11-30T01:59:47;9.18;;;3.92;;
69358;SDS011;56520;49.066;8.660;2022-11-30T02:02:17;7.78;;;3.10;;
69358;SDS011;56520;49.066;8.660;2022-11-30T02:04:47;8.82;;;3.08;;
69358;SDS011;56520;49.066;8.660;2022-11-30T02:07:13;7.93;;;3.03;;
69358;SDS011;56520;49.066;8.660;2022-11-30T02:09:41;8.57;;;3.33;;
69358;SDS011;56520;49.066;8.660;2022-11-30T02:12:10;9.40;;;3.05;;
69358;SDS011;56520;49.066;8.660;2022-11-30T02:14:54;8.38;;;3.05;;
69358;SDS011;56520;49.066;8.660;2022-11-30T02:23:07;7.80;;;3.38;;
69358;SDS011;56520;49.066;8.660;2022-11-30T02:31:33;8.75;;;3.65;;
69358;SDS011;56520;49.066;8.660;2022-11-30T02:34:04;11.30;;;4.43;;
69358;SDS011;56520;49.066;8.660;2022-11-30T02:36:33;9.82;;;3.97;;
69358;SDS011;56520;49.066;8.660;2022-11-30T02:38:59;9.20;;;3.60;;
69358;SDS011;56520;49.066;8.660;2022-11-30T02:41:25;10.45;;;4.13;;
69358;SDS011;56520;49.066;8.660;2022-11-30T02:43:50;11.43;;;5.10;;
69358;SDS011;56520;49.066;8.660;2022-11-30T02:49:02;10.88;;;4.32;;
69358;SDS011;56520;49.066;8.660;2022-11-30T02:51:38;9.18;;;3.75;;
69358;SDS011;56520;49.066;8.660;2022-11-30T02:54:05;10.55;;;3.95;;
69358;SDS011;56520;49.066;8.660;2022-11-30T02:56:31;8.73;;;3.70;;
69358;SDS011;56520;49.066;8.660;2022-11-30T02:59:01;8.48;;;3.58;;
69358;SDS011;56520;49.066;8.660;2022-11-30T03:01:26;8.77;;;3.90;;
69358;SDS011;56520;49.066;8.660;2022-11-30T03:03:52;8.57;;;3.55;;
69358;SDS011;56520;49.066;8.660;2022-11-30T03:06:17;8.13;;;3.35;;
69358;SDS011;56520;49.066;8.660;2022-11-30T03:08:42;6.55;;;2.55;;
69358;SDS011;56520;49.066;8.660;2022-11-30T03:11:08;7.43;;;3.00;;
69358;SDS011;56520;49.066;8.660;2022-11-30T03:13:43;8.02;;;3.15;;
69358;SDS011;56520;49.066;8.660;2022-11-30T03:16:09;7.60;;;3.03;;
69358;SDS011;56520;49.066;8.660;2022-11-30T03:18:39;9.43;;;3.90;;
69358;SDS011;56520;49.066;8.660;2022-11-30T03:21:05;9.23;;;3.67;;
69358;SDS011;56520;49.066;8.660;2022-11-30T03:23:34;9.48;;;3.30;;
69358;SDS011;56520;49.066;8.660;2022-11-30T03:26:01;8.95;;;3.65;;
69358;SDS011;56520;49.066;8.660;2022-11-30T03:28:27;8.73;;;3.30;;
69358;SDS011;56520;49.066;8.660;2022-11-30T03:30:53;8.82;;;3.65;;
69358;SDS011;56520;49.066;8.660;2022-11-30T03:33:19;9.00;;;3.45;;
69358;SDS011;56520;49.066;8.660;2022-11-30T03:35:44;9.18;;;3.60;;
69358;SDS011;56520;49.066;8.660;2022-11-30T03:38:10;9.48;;;3.35;;
69358;SDS011;56520;49.066;8.660;2022-11-30T03:40:36;8.38;;;3.38;;
69358;SDS011;56520;49.066;8.660;2022-11-30T03:43:02;10.35;;;4.55;;
69358;SDS011;56520;49.066;8.660;2022-11-30T03:45:28;12.15;;;5.07;;
69358;SDS011;56520;49.066;8.660;2022-11-30T03:47:54;11.68;;;5.20;;
69358;SDS011;56520;49.066;8.660;2022-11-30T03:50:19;14.00;;;5.07;;
69358;SDS011;56520;49.066;8.660;2022-11-30T03:52:45;13.50;;;5.00;;
69358;SDS011;56520;49.066;8.660;2022-11-30T03:55:10;13.05;;;5.13;;
69358;SDS011;56520;49.066;8.660;2022-11-30T03:57:36;14.15;;;5.43;;
69358;SDS011;56520;49.066;8.660;2022-11-30T04:00:02;15.13;;;5.47;;
69358;SDS011;56520;49.066;8.660;2022-11-30T04:02:29;14.38;;;5.18;;
69358;SDS011;56520;49.066;8.660;2022-11-30T04:07:46;13.20;;;5.22;;
69358;SDS011;56520;49.066;8.660;2022-11-30T04:10:11;11.68;;;4.70;;
69358;SDS011;56520;49.066;8.660;2022-11-30T04:12:40;15.15;;;5.95;;
69358;SDS011;56520;49.066;8.660;2022-11-30T04:15:06;14.23;;;4.88;;
69358;SDS011;56520;49.066;8.660;2022-11-30T04:17:32;15.07;;;6.07;;
69358;SDS011;56520;49.066;8.660;2022-11-30T04:19:57;14.63;;;5.43;;
69358;SDS011;56520;49.066;8.660;2022-11-30T04:22:22;14.95;;;4.93;;
69358;SDS011;56520;49.066;8.660;2022-11-30T04:24:48;13.30;;;6.00;;
69358;SDS011;56520;49.066;8.660;2022-11-30T04:27:13;11.80;;;5.18;;
69358;SDS011;56520;49.066;8.660;2022-11-30T04:29:39;12.35;;;5.25;;
69358;SDS011;56520;49.066;8.660;2022-11-30T04:32:04;14.90;;;5.63;;
69358;SDS011;56520;49.066;8.660;2022-11-30T04:34:30;12.75;;;5.88;;
69358;SDS011;56520;49.066;8.660;2022-11-30T04:36:56;13.48;;;6.30;;
69358;SDS011;56520;49.066;8.660;2022-11-30T04:39:21;15.27;;;5.72;;
69358;SDS011;56520;49.066;8.660;2022-11-30T04:41:50;12.77;;;5.70;;
69358;SDS011;56520;49.066;8.660;2022-11-30T04:44:15;12.80;;;4.97;;
69358;SDS011;56520;49.066;8.660;2022-11-30T04:46:41;11.30;;;4.45;;
69358;SDS011;56520;49.066;8.660;2022-11-30T04:49:06;11.90;;;4.75;;
69358;SDS011;56520;49.066;8.660;2022-11-30T04:51:31;12.55;;;5.40;;
69358;SDS011;56520;49.066;8.660;2022-11-30T04:53:57;12.68;;;5.10;;
69358;SDS011;56520;49.066;8.660;2022-11-30T04:56:22;10.50;;;4.70;;
69358;SDS011;56520;49.066;8.660;2022-11-30T04:58:48;10.45;;;4.15;;
69358;SDS011;56520;49.066;8.660;2022-11-30T05:01:13;10.63;;;5.00;;
69358;SDS011;56520;49.066;8.660;2022-11-30T05:03:39;10.80;;;4.75;;
69358;SDS011;56520;49.066;8.660;2022-11-30T05:06:04;13.38;;;4.75;;
69358;SDS011;56520;49.066;8.660;2022-11-30T05:08:30;11.10;;;4.15;;
69358;SDS011;56520;49.066;8.660;2022-11-30T05:10:55;9.18;;;4.20;;
69358;SDS011;56520;49.066;8.660;2022-11-30T05:13:24;11.32;;;4.70;;
69358;SDS011;56520;49.066;8.660;2022-11-30T05:15:50;11.30;;;4.63;;
69358;SDS011;56520;49.066;8.660;2022-11-30T05:18:17;10.25;;;4.05;;
69358;SDS011;56520;49.066;8.660;2022-11-30T05:20:49;10.18;;;4.18;;
69358;SDS011;56520;49.066;8.660;2022-11-30T05:23:16;8.32;;;3.38;;
69358;SDS011;56520;49.066;8.660;2022-11-30T05:25:43;8.73;;;3.92;;
69358;SDS011;56520;49.066;8.660;2022-11-30T05:28:09;9.82;;;4.18;;
69358;SDS011;56520;49.066;8.660;2022-11-30T05:30:35;8.13;;;3.35;;
69358;SDS011;56520;49.066;8.660;2022-11-30T05:33:02;7.00;;;2.83;;
69358;SDS011;56520;49.066;8.660;2022-11-30T05:35:27;7.80;;;3.20;;
69358;SDS011;56520;49.066;8.660;2022-11-30T05:37:53;7.28;;;3.38;;
69358;SDS011;56520;49.066;8.660;2022-11-30T05:40:18;10.63;;;4.45;;
69358;SDS011;56520;49.066;8.660;2022-11-30T05:42:44;7.45;;;2.90;;
69358;SDS011;56520;49.066;8.660;2022-11-30T05:45:09;8.30;;;2.83;;
69358;SDS011;56520;49.066;8.660;2022-11-30T05:47:36;5.95;;;2.45;;
69358;SDS011;56520;49.066;8.660;2022-11-30T05:50:01;7.25;;;2.85;;
69358;SDS011;56520;49.066;8.660;2022-11-30T05:52:27;7.55;;;2.90;;
69358;SDS011;56520;49.066;8.660;2022-11-30T05:54:52;7.15;;;2.97;;
69358;SDS011;56520;49.066;8.660;2022-11-30T05:57:18;6.93;;;2.58;;
69358;SDS011;56520;49.066;8.660;2022-11-30T05:59:43;6.43;;;2.80;;
69358;SDS011;56520;49.066;8.660;2022-11-30T06:02:09;8.13;;;2.53;;
69358;SDS011;56520;49.066;8.660;2022-11-30T06:04:34;7.60;;;3.03;;
69358;SDS011;56520;49.066;8.660;2022-11-30T06:07:00;7.07;;;2.58;;
69358;SDS011;56520;49.066;8.660;2022-11-30T06:09:34;7.07;;;2.83;;
69358;SDS011;56520;49.066;8.660;2022-11-30T06:12:00;7.85;;;2.65;;
69358;SDS011;56520;49.066;8.660;2022-11-30T06:14:26;7.20;;;2.75;;
69358;SDS011;56520;49.066;8.660;2022-11-30T06:16:51;7.53;;;3.17;;
69358;SDS011;56520;49.066;8.660;2022-11-30T06:19:16;6.57;;;2.83;;
69358;SDS011;56520;49.066;8.660;2022-11-30T06:21:42;8.15;;;3.00;;
69358;SDS011;56520;49.066;8.660;2022-11-30T06:24:07;8.18;;;2.97;;
69358;SDS011;56520;49.066;8.660;2022-11-30T06:26:34;7.53;;;2.85;;
69358;SDS011;56520;49.066;8.660;2022-11-30T06:28:59;7.55;;;3.10;;
69358;SDS011;56520;49.066;8.660;2022-11-30T06:31:25;8.25;;;3.25;;
69358;SDS011;56520;49.066;8.660;2022-11-30T06:33:50;8.68;;;3.72;;
69358;SDS011;56520;49.066;8.660;2022-11-30T06:36:19;8.00;;;3.28;;
69358;SDS011;56520;49.066;8.660;2022-11-30T06:38:46;9.30;;;3.90;;
69358;SDS011;56520;49.066;8.660;2022-11-30T06:41:12;9.00;;;4.05;;
69358;SDS011;56520;49.066;8.660;2022-11-30T06:43:38;7.07;;;2.92;;
69358;SDS011;56520;49.066;8.660;2022-11-30T06:46:04;8.32;;;3.33;;
69358;SDS011;56520;49.066;8.660;2022-11-30T06:48:31;8.13;;;3.55;;
69358;SDS011;56520;49.066;8.660;2022-11-30T06:50:56;10.73;;;3.85;;
69358;SDS011;56520;49.066;8.660;2022-11-30T06:53:22;9.70;;;3.67;;
69358;SDS011;56520;49.066;8.660;2022-11-30T06:55:48;10.93;;;4.05;;
69358;SDS011;56520;49.066;8.660;2022-11-30T06:58:14;8.65;;;3.60;;
69358;SDS011;56520;49.066;8.660;2022-11-30T07:00:39;10.57;;;3.88;;
69358;SDS011;56520;49.066;8.660;2022-11-30T07:03:06;7.63;;;3.17;;
69358;SDS011;56520;49.066;8.660;2022-11-30T07:05:33;7.72;;;3.08;;
69358;SDS011;56520;49.066;8.660;2022-11-30T07:08:03;8.10;;;2.90;;
69358;SDS011;56520;49.066;8.660;2022-11-30T07:10:29;8.70;;;3.28;;
69358;SDS011;56520;49.066;8.660;2022-11-30T07:12:54;9.32;;;2.65;;
69358;SDS011;56520;49.066;8.660;2022-11-30T07:15:20;6.82;;;2.75;;
69358;SDS011;56520;49.066;8.660;2022-11-30T07:17:45;8.15;;;2.78;;
69358;SDS011;56520;49.066;8.660;2022-11-30T07:20:11;6.18;;;2.72;;
69358;SDS011;56520;49.066;8.660;2022-11-30T07:22:37;7.82;;;3.05;;
69358;SDS011;56520;49.066;8.660;2022-11-30T07:25:02;8.10;;;2.75;;
69358;SDS011;56520;49.066;8.660;2022-11-30T07:27:46;7.03;;;2.78;;
69358;SDS011;56520;49.066;8.660;2022-11-30T07:30:12;6.80;;;2.65;;
69358;SDS011;56520;49.066;8.660;2022-11-30T07:32:37;5.97;;;2.25;;
69358;SDS011;56520;49.066;8.660;2022-11-30T07:35:03;7.78;;;2.60;;
69358;SDS011;56520;49.066;8.660;2022-11-30T07:37:29;6.70;;;2.88;;
69358;SDS011;56520;49.066;8.660;2022-11-30T07:39:57;6.43;;;2.85;;
69358;SDS011;56520;49.066;8.660;2022-11-30T07:42:22;7.13;;;2.50;;
69358;SDS011;56520;49.066;8.660;2022-11-30T07:44:48;6.80;;;2.40;;
69358;SDS011;56520;49.066;8.660;2022-11-30T07:47:14;6.22;;;2.65;;
69358;SDS011;56520;49.066;8.660;2022-11-30T07:49:40;5.68;;;2.40;;
69358;SDS011;56520;49.066;8.660;2022-11-30T07:52:05;7.53;;;3.40;;
69358;SDS011;56520;49.066;8.660;2022-11-30T07:54:31;8.20;;;3.00;;
69358;SDS011;56520;49.066;8.660;2022-11-30T07:56:56;8.15;;;3.03;;
69358;SDS011;56520;49.066;8.660;2022-11-30T07:59:22;11.02;;;4.07;;
69358;SDS011;56520;49.066;8.660;2022-11-30T08:01:47;8.63;;;4.13;;
69358;SDS011;56520;49.066;8.660;2022-11-30T08:04:13;8.68;;;3.70;;
69358;SDS011;56520;49.066;8.660;2022-11-30T08:06:38;8.85;;;3.28;;
69358;SDS011;56520;49.066;8.660;2022-11-30T08:09:04;9.63;;;3.47;;
69358;SDS011;56520;49.066;8.660;2022-11-30T08:11:31;8.10;;;3.08;;
69358;SDS011;56520;49.066;8.660;2022-11-30T08:13:59;6.70;;;2.72;;
69358;SDS011;56520;49.066;8.660;2022-11-30T08:16:26;8.23;;;2.85;;
69358;SDS011;56520;49.066;8.660;2022-11-30T08:18:56;8.70;;;2.65;;
69358;SDS011;56520;49.066;8.660;2022-11-30T08:21:22;7.88;;;2.67;;
69358;SDS011;56520;49.066;8.660;2022-11-30T08:23:52;10.20;;;3.90;;
69358;SDS011;56520;49.066;8.660;2022-11-30T08:26:24;10.82;;;3.83;;
69358;SDS011;56520;49.066;8.660;2022-11-30T08:28:54;9.48;;;4.35;;
69358;SDS011;56520;49.066;8.660;2022-11-30T08:31:31;10.60;;;3.72;;
69358;SDS011;56520;49.066;8.660;2022-11-30T08:33:59;11.25;;;4.20;;
69358;SDS011;56520;49.066;8.660;2022-11-30T08:36:28;9.70;;;3.75;;
69358;SDS011;56520;49.066;8.660;2022-11-30T08:38:55;11.35;;;4.88;;
69358;SDS011;56520;49.066;8.660;2022-11-30T08:41:21;11.43;;;5.00;;
69358;SDS011;56520;49.066;8.660;2022-11-30T08:43:53;11.45;;;4.47;;
69358;SDS011;56520;49.066;8.660;2022-11-30T08:46:19;9.45;;;3.90;;
69358;SDS011;56520;49.066;8.660;2022-11-30T08:48:46;9.80;;;4.28;;
69358;SDS011;56520;49.066;8.660;2022-11-30T08:51:13;10.57;;;4.28;;
69358;SDS011;56520;49.066;8.660;2022-11-30T08:53:41;15.25;;;4.55;;
69358;SDS011;56520;49.066;8.660;2022-11-30T08:56:09;11.80;;;3.90;;
69358;SDS011;56520;49.066;8.660;2022-11-30T08:58:37;10.88;;;4.72;;
69358;SDS011;56520;49.066;8.660;2022-11-30T09:03:37;11.38;;;4.88;;
69358;SDS011;56520;49.066;8.660;2022-11-30T09:06:14;11.75;;;4.97;;
69358;SDS011;56520;49.066;8.660;2022-11-30T09:08:45;12.52;;;4.55;;
69358;SDS011;56520;49.066;8.660;2022-11-30T09:13:43;12.98;;;5.03;;
69358;SDS011;56520;49.066;8.660;2022-11-30T09:16:10;13.90;;;5.55;;
69358;SDS011;56520;49.066;8.660;2022-11-30T09:18:36;10.88;;;4.25;;
69358;SDS011;56520;49.066;8.660;2022-11-30T09:21:04;11.82;;;4.22;;
69358;SDS011;56520;49.066;8.660;2022-11-30T09:23:32;12.63;;;3.75;;
69358;SDS011;56520;49.066;8.660;2022-11-30T09:25:58;11.30;;;4.70;;
69358;SDS011;56520;49.066;8.660;2022-11-30T09:28:25;9.55;;;3.97;;
69358;SDS011;56520;49.066;8.660;2022-11-30T09:30:51;8.82;;;4.10;;
69358;SDS011;56520;49.066;8.660;2022-11-30T09:33:18;10.73;;;4.80;;
69358;SDS011;56520;49.066;8.660;2022-11-30T09:35:53;12.65;;;4.70;;
69358;SDS011;56520;49.066;8.660;2022-11-30T09:38:22;10.95;;;4.28;;
69358;SDS011;56520;49.066;8.660;2022-11-30T09:40:50;9.55;;;4.28;;
69358;SDS011;56520;49.066;8.660;2022-11-30T09:46:16;13.35;;;4.72;;
69358;SDS011;56520;49.066;8.660;2022-11-30T09:48:55;11.85;;;4.68;;
69358;SDS011;56520;49.066;8.660;2022-11-30T09:51:27;9.10;;;4.20;;
69358;SDS011;56520;49.066;8.660;2022-11-30T09:54:06;9.90;;;4.30;;
69358;SDS011;56520;49.066;8.660;2022-11-30T09:56:38;11.00;;;4.35;;
69358;SDS011;56520;49.066;8.660;2022-11-30T09:59:12;11.82;;;4.68;;
69358;SDS011;56520;49.066;8.660;2022-11-30T10:01:53;9.93;;;4.00;;
69358;SDS011;56520;49.066;8.660;2022-11-30T10:04:21;9.43;;;3.85;;
69358;SDS011;56520;49.066;8.660;2022-11-30T10:12:27;10.27;;;3.58;;
69358;SDS011;56520;49.066;8.660;2022-11-30T10:17:40;10.27;;;4.25;;
69358;SDS011;56520;49.066;8.660;2022-11-30T10:26:07;11.40;;;4.28;;
69358;SDS011;56520;49.066;8.660;2022-11-30T10:28:40;9.00;;;3.97;;
69358;SDS011;56520;49.066;8.660;2022-11-30T10:31:18;9.05;;;4.05;;
69358;SDS011;56520;49.066;8.660;2022-11-30T10:33:50;9.05;;;3.53;;
69358;SDS011;56520;49.066;8.660;2022-11-30T10:36:39;9.77;;;3.67;;
69358;SDS011;56520;49.066;8.660;2022-11-30T10:39:18;11.02;;;4.57;;
69358;SDS011;56520;49.066;8.660;2022-11-30T10:41:52;9.90;;;4.15;;
69358;SDS011;56520;49.066;8.660;2022-11-30T10:44:25;9.55;;;4.28;;
69358;SDS011;56520;49.066;8.660;2022-11-30T10:46:57;12.05;;;4.60;;
69358;SDS011;56520;49.066;8.660;2022-11-30T10:49:32;16.50;;;4.93;;
69358;SDS011;56520;49.066;8.660;2022-11-30T10:52:02;13.00;;;4.88;;
69358;SDS011;56520;49.066;8.660;2022-11-30T10:54:31;11.60;;;4.18;;
69358;SDS011;56520;49.066;8.660;2022-11-30T10:57:01;13.88;;;5.50;;
69358;SDS011;56520;49.066;8.660;2022-11-30T11:02:51;11.80;;;5.13;;
69358;SDS011;56520;49.066;8.660;2022-11-30T11:10:35;11.55;;;4.32;;
69358;SDS011;56520;49.066;8.660;2022-11-30T11:13:04;12.55;;;4.55;;
69358;SDS011;56520;49.066;8.660;2022-11-30T11:15:33;12.75;;;4.60;;
69358;SDS011;56520;49.066;8.660;2022-11-30T11:20:43;10.77;;;4.85;;
69358;SDS011;56520;49.066;8.660;2022-11-30T11:23:22;10.80;;;4.32;;
69358;SDS011;56520;49.066;8.660;2022-11-30T11:25:54;11.70;;;4.90;;
69358;SDS011;56520;49.066;8.660;2022-11-30T11:28:27;12.30;;;5.07;;
69358;SDS011;56520;49.066;8.660;2022-11-30T11:30:56;12.57;;;4.60;;
69358;SDS011;56520;49.066;8.660;2022-11-30T11:33:25;11.15;;;4.65;;
69358;SDS011;56520;49.066;8.660;2022-11-30T11:36:12;11.52;;;4.60;;
69358;SDS011;56520;49.066;8.660;2022-11-30T11:38:43;10.80;;;4.80;;
69358;SDS011;56520;49.066;8.660;2022-11-30T11:46:32;11.27;;;4.60;;
69358;SDS011;56520;49.066;8.660;2022-11-30T11:51:42;11.57;;;4.43;;
69358;SDS011;56520;49.066;8.660;2022-11-30T11:54:21;13.55;;;5.50;;
69358;SDS011;56520;49.066;8.660;2022-11-30T11:56:53;10.77;;;4.65;;
69358;SDS011;56520;49.066;8.660;2022-11-30T11:59:27;12.20;;;5.60;;
69358;SDS011;56520;49.066;8.660;2022-11-30T12:12:45;13.63;;;5.15;;
69358;SDS011;56520;49.066;8.660;2022-11-30T12:15:16;12.40;;;5.35;;
69358;SDS011;56520;49.066;8.660;2022-11-30T12:18:00;12.18;;;5.15;;
69358;SDS011;56520;49.066;8.660;2022-11-30T12:20:34;10.75;;;4.80;;
69358;SDS011;56520;49.066;8.660;2022-11-30T12:28:48;16.55;;;5.45;;
69358;SDS011;56520;49.066;8.660;2022-11-30T12:31:23;12.50;;;4.57;;
69358;SDS011;56520;49.066;8.660;2022-11-30T12:34:05;13.00;;;5.70;;
69358;SDS011;56520;49.066;8.660;2022-11-30T12:36:42;11.02;;;4.35;;
69358;SDS011;56520;49.066;8.660;2022-11-30T12:44:33;14.75;;;6.13;;
69358;SDS011;56520;49.066;8.660;2022-11-30T12:47:35;11.32;;;4.65;;
69358;SDS011;56520;49.066;8.660;2022-11-30T12:50:21;15.00;;;5.20;;
69358;SDS011;56520;49.066;8.660;2022-11-30T12:53:28;10.75;;;4.47;;
69358;SDS011;56520;49.066;8.660;2022-11-30T12:56:43;13.73;;;4.95;;
69358;SDS011;56520;49.066;8.660;2022-11-30T13:09:59;11.43;;;5.15;;
69358;SDS011;56520;49.066;8.660;2022-11-30T13:12:33;13.18;;;5.45;;
69358;SDS011;56520;49.066;8.660;2022-11-30T13:15:03;13.15;;;5.88;;
69358;SDS011;56520;49.066;8.660;2022-11-30T13:17:34;14.90;;;5.95;;
69358;SDS011;56520;49.066;8.660;2022-11-30T13:20:06;14.93;;;5.78;;
69358;SDS011;56520;49.066;8.660;2022-11-30T13:41:49;13.23;;;5.45;;
69358;SDS011;56520;49.066;8.660;2022-11-30T13:50:06;13.50;;;5.70;;
69358;SDS011;56520;49.066;8.660;2022-11-30T14:05:47;11.20;;;4.47;;
69358;SDS011;56520;49.066;8.660;2022-11-30T14:14:02;12.70;;;5.30;;
69358;SDS011;56520;49.066;8.660;2022-11-30T14:17:01;12.05;;;5.65;;
69358;SDS011;56520;49.066;8.660;2022-11-30T14:19:27;12.32;;;5.80;;
69358;SDS011;56520;49.066;8.660;2022-11-30T14:21:52;14.40;;;5.65;;
69358;SDS011;56520;49.066;8.660;2022-11-30T14:24:20;11.80;;;5.43;;
69358;SDS011;56520;49.066;8.660;2022-11-30T14:26:47;11.38;;;5.13;;
69358;SDS011;56520;49.066;8.660;2022-11-30T14:29:26;15.43;;;6.03;;
69358;SDS011;56520;49.066;8.660;2022-11-30T14:31:59;11.77;;;4.60;;
69358;SDS011;56520;49.066;8.660;2022-11-30T14:34:34;15.52;;;6.25;;
69358;SDS011;56520;49.066;8.660;2022-11-30T14:37:11;14.43;;;6.07;;
69358;SDS011;56520;49.066;8.660;2022-11-30T14:39:44;16.55;;;6.18;;
69358;SDS011;56520;49.066;8.660;2022-11-30T14:42:30;12.18;;;5.40;;
69358;SDS011;56520;49.066;8.660;2022-11-30T14:44:59;11.77;;;5.03;;
69358;SDS011;56520;49.066;8.660;2022-11-30T14:47:29;12.82;;;5.47;;
69358;SDS011;56520;49.066;8.660;2022-11-30T14:50:03;11.40;;;5.00;;
69358;SDS011;56520;49.066;8.660;2022-11-30T14:58:08;12.48;;;5.32;;
69358;SDS011;56520;49.066;8.660;2022-11-30T15:00:46;14.27;;;5.13;;
69358;SDS011;56520;49.066;8.660;2022-11-30T15:03:20;14.80;;;6.03;;
69358;SDS011;56520;49.066;8.660;2022-11-30T15:05:53;11.68;;;4.80;;
69358;SDS011;56520;49.066;8.660;2022-11-30T15:08:34;11.93;;;5.07;;
69358;SDS011;56520;49.066;8.660;2022-11-30T15:11:03;14.27;;;5.65;;
69358;SDS011;56520;49.066;8.660;2022-11-30T15:13:30;13.73;;;5.63;;
69358;SDS011;56520;49.066;8.660;2022-11-30T15:15:59;14.73;;;5.47;;
69358;SDS011;56520;49.066;8.660;2022-11-30T15:18:24;13.40;;;5.07;;
69358;SDS011;56520;49.066;8.660;2022-11-30T15:20:57;13.55;;;6.00;;
69358;SDS011;56520;49.066;8.660;2022-11-30T15:23:26;14.82;;;6.28;;
69358;SDS011;56520;49.066;8.660;2022-11-30T15:25:55;12.88;;;5.75;;
69358;SDS011;56520;49.066;8.660;2022-11-30T15:28:26;12.52;;;5.03;;
69358;SDS011;56520;49.066;8.660;2022-11-30T15:30:57;12.13;;;5.35;;
69358;SDS011;56520;49.066;8.660;2022-11-30T15:33:27;11.80;;;5.10;;
69358;SDS011;56520;49.066;8.660;2022-11-30T15:36:06;11.45;;;5.47;;
69358;SDS011;56520;49.066;8.660;2022-11-30T15:38:32;12.77;;;5.40;;
69358;SDS011;56520;49.066;8.660;2022-11-30T15:41:02;14.82;;;6.22;;
69358;SDS011;56520;49.066;8.660;2022-11-30T15:43:39;10.75;;;5.10;;
69358;SDS011;56520;49.066;8.660;2022-11-30T15:46:04;11.70;;;4.90;;
69358;SDS011;56520;49.066;8.660;2022-11-30T15:48:31;13.18;;;5.32;;
69358;SDS011;56520;49.066;8.660;2022-11-30T15:50:59;12.52;;;5.15;;
69358;SDS011;56520;49.066;8.660;2022-11-30T15:53:26;11.45;;;5.43;;
69358;SDS011;56520;49.066;8.660;2022-11-30T15:55:53;11.82;;;5.22;;
69358;SDS011;56520;49.066;8.660;2022-11-30T15:58:48;13.35;;;5.05;;
69358;SDS011;56520;49.066;8.660;2022-11-30T16:01:56;12.65;;;5.63;;
69358;SDS011;56520;49.066;8.660;2022-11-30T16:07:24;12.38;;;5.57;;
69358;SDS011;56520;49.066;8.660;2022-11-30T16:10:05;14.40;;;5.78;;
69358;SDS011;56520;49.066;8.660;2022-11-30T16:12:47;15.02;;;5.78;;
69358;SDS011;56520;49.066;8.660;2022-11-30T16:15:32;14.23;;;5.07;;
69358;SDS011;56520;49.066;8.660;2022-11-30T16:18:22;15.32;;;4.55;;
69358;SDS011;56520;49.066;8.660;2022-11-30T16:20:47;13.38;;;5.30;;
69358;SDS011;56520;49.066;8.660;2022-11-30T16:23:15;13.00;;;5.70;;
69358;SDS011;56520;49.066;8.660;2022-11-30T16:25:42;15.50;;;6.18;;
69358;SDS011;56520;49.066;8.660;2022-11-30T16:28:08;12.93;;;4.78;;
69358;SDS011;56520;49.066;8.660;2022-11-30T16:30:37;13.45;;;5.22;;
69358;SDS011;56520;49.066;8.660;2022-11-30T16:33:03;14.52;;;5.78;;
69358;SDS011;56520;49.066;8.660;2022-11-30T16:38:02;12.13;;;5.07;;
69358;SDS011;56520;49.066;8.660;2022-11-30T16:40:28;14.63;;;5.57;;
69358;SDS011;56520;49.066;8.660;2022-11-30T16:42:55;13.32;;;5.38;;
69358;SDS011;56520;49.066;8.660;2022-11-30T16:45:22;14.80;;;5.47;;
69358;SDS011;56520;49.066;8.660;2022-11-30T16:47:49;13.63;;;6.00;;
69358;SDS011;56520;49.066;8.660;2022-11-30T16:50:15;13.63;;;5.63;;
69358;SDS011;56520;49.066;8.660;2022-11-30T16:52:41;15.20;;;5.95;;
69358;SDS011;56520;49.066;8.660;2022-11-30T16:55:17;14.63;;;5.63;;
69358;SDS011;56520;49.066;8.660;2022-11-30T16:57:44;21.25;;;9.43;;
69358;SDS011;56520;49.066;8.660;2022-11-30T17:00:12;21.13;;;9.80;;
69358;SDS011;56520;49.066;8.660;2022-11-30T17:05:32;14.35;;;6.78;;
69358;SDS011;56520;49.066;8.660;2022-11-30T17:07:58;12.25;;;5.45;;
69358;SDS011;56520;49.066;8.660;2022-11-30T17:10:23;13.40;;;5.90;;
69358;SDS011;56520;49.066;8.660;2022-11-30T17:12:49;13.00;;;5.40;;
69358;SDS011;56520;49.066;8.660;2022-11-30T17:15:16;11.63;;;4.43;;
69358;SDS011;56520;49.066;8.660;2022-11-30T17:17:46;11.35;;;4.75;;
69358;SDS011;56520;49.066;8.660;2022-11-30T17:20:12;11.48;;;5.15;;
69358;SDS011;56520;49.066;8.660;2022-11-30T17:22:39;13.20;;;4.97;;
69358;SDS011;56520;49.066;8.660;2022-11-30T17:25:06;12.82;;;4.97;;